Terminal Aerodrome Forecast
Issued by NWS

Home | Current Version | Previous Version | Text Only | Print | Product List | Glossary On
Versions: 1 2 3 4 5 6 7 8 9 10 11 12 13 14 15 16 17 18 19 20 21 22 23 24 25 26 27 28
000
FTUS46 KEKA 011740
TAFCEC
TAF
KCEC 011740Z 0118/0218 16003KT 6SM HZ BR BKN050 OVC100
     FM012100 16007KT P6SM VCSH BKN035 OVC040
     FM020100 19006KT 5SM -SHRA BR OVC025
     FM021200 16011KT 2SM -RA BKN007 OVC015=

USA.gov is the U.S. government's official web portal to all federal, state and local government web resources and services.